メインページ
METAR-TAF:

METAR-TAF

空港 :

関西国際空港, 日本

緯度: 34-25N, 経度: 135-15E, 海抜: 5m

現時点の気象観測

当レポートは28分前の23:30(UTC)に作成
北東の風 4kt
気温 5°C
湿度 56%
気圧 1023 hPa
視程10km以上
1,500メートル以下は雲なし、積乱雲なし

METAR: RJBB 182330Z 05004KT CAVOK 05/M03 Q1023 NOSIG

時間: 08:58 (23:58 UTC)

予報

当レポートは52分前の23:06(UTC)に作成
予報は19日の 00時(UTC)から 20日の 06時(UTC)まで有効
東/北東の風 5kt
視程10km以上
高度3000ftの雲はほとんどない
19日の 03時(UTC)から 19日の 05時(UTC)まで徐々に
西の風 4kt
19日の 08時(UTC)から 19日の 10時(UTC)まで徐々に
東/北東の風 6kt

TAF: RJBB 182306Z 1900/2006 06005KT 9999 FEW030 BECMG 1903/1905 26004KT BECMG 1908/1910 06006KT

4,000以上の空港の気象観測と天気予報(METAR報とTAF報)

利用可能な観測所は地図上に黄色い丸と赤い丸で示す。

丸の上にカーソルを重ねると観測所名を参照できる。

次にクリックすると気象観測と天気予報を参照できる。

マップの切り替え:黒色「×」印の緑ボタンをクリックして拡大、「-」印の緑ボタンをクリックして縮小、緑色の三角印をクリックして隣りの地図に切り替え


METAR-TAF: